createdAt,value
2022-11-15T00:00:09.664Z,4
2022-11-15T00:03:09.563Z,3.9
2022-11-15T00:06:09.651Z,3.9
2022-11-15T00:09:09.660Z,3.9
2022-11-15T00:12:09.526Z,3.9
2022-11-15T00:15:09.501Z,3.9
2022-11-15T00:18:09.608Z,4
2022-11-15T00:21:09.527Z,4.1
2022-11-15T00:24:09.530Z,4.2
2022-11-15T00:27:12.696Z,4.2
2022-11-15T00:30:10.076Z,4.2
2022-11-15T00:33:09.511Z,4.2
2022-11-15T00:36:09.545Z,4.1
2022-11-15T00:39:09.571Z,3.9
2022-11-15T00:42:09.620Z,3.8
2022-11-15T00:45:09.553Z,3.6
2022-11-15T00:48:09.514Z,3.6
2022-11-15T00:51:09.623Z,3.4
2022-11-15T00:54:09.515Z,3.4
2022-11-15T00:57:09.580Z,3.4
2022-11-15T01:00:09.577Z,3.4
2022-11-15T01:03:09.522Z,3.5
2022-11-15T01:06:10.224Z,3.5
2022-11-15T01:09:09.637Z,3.5
2022-11-15T01:12:09.565Z,3.4
2022-11-15T01:15:09.602Z,3.3
2022-11-15T01:18:09.516Z,3.3
2022-11-15T01:21:09.555Z,3.2
2022-11-15T01:24:09.534Z,3.2
2022-11-15T01:27:09.639Z,3.2
2022-11-15T01:30:09.570Z,3.1
2022-11-15T01:33:09.539Z,3
2022-11-15T01:36:09.589Z,2.9
2022-11-15T01:39:09.518Z,2.7
2022-11-15T01:42:09.556Z,2.7
2022-11-15T01:45:09.576Z,2.7
2022-11-15T01:48:09.561Z,2.7
2022-11-15T01:51:09.509Z,2.6
2022-11-15T01:54:09.546Z,2.5
2022-11-15T01:57:09.543Z,2.6
2022-11-15T02:00:09.545Z,2.5
2022-11-15T02:03:09.488Z,2.4
2022-11-15T02:06:09.586Z,2.4
2022-11-15T02:09:09.496Z,2.3
2022-11-15T02:12:09.523Z,2.4
2022-11-15T02:15:09.524Z,2.4
2022-11-15T02:18:09.620Z,2.4
2022-11-15T02:21:09.514Z,2.5
2022-11-15T02:24:09.570Z,2.6
2022-11-15T02:27:09.493Z,2.7
2022-11-15T02:30:09.549Z,2.7
2022-11-15T02:33:09.564Z,2.7
2022-11-15T02:36:09.544Z,2.8
2022-11-15T02:39:09.549Z,2.7
2022-11-15T02:42:09.529Z,2.6
2022-11-15T02:45:09.566Z,2.6
2022-11-15T02:48:09.555Z,2.7
2022-11-15T02:51:09.552Z,2.6
2022-11-15T02:54:09.486Z,2.6
2022-11-15T02:57:09.494Z,2.8
2022-11-15T03:00:09.544Z,2.9
2022-11-15T03:03:09.515Z,3
2022-11-15T03:06:09.528Z,3
2022-11-15T03:09:09.537Z,3
2022-11-15T03:12:09.628Z,3
2022-11-15T03:15:09.751Z,3
2022-11-15T03:18:09.789Z,3
2022-11-15T03:21:09.563Z,2.9
2022-11-15T03:24:09.540Z,3
2022-11-15T03:27:09.552Z,3.1
2022-11-15T03:30:09.623Z,3.2
2022-11-15T03:33:09.566Z,3.2
2022-11-15T03:36:09.546Z,3.3
2022-11-15T03:39:09.561Z,3.3
2022-11-15T03:42:09.520Z,3.5
2022-11-15T03:45:09.554Z,3.7
2022-11-15T03:48:09.493Z,3.8
2022-11-15T03:51:09.528Z,3.9
2022-11-15T03:54:09.555Z,3.9
2022-11-15T03:57:09.575Z,4.1
2022-11-15T04:00:09.542Z,4.1
2022-11-15T04:03:09.574Z,4.2
2022-11-15T04:06:09.578Z,4.2
2022-11-15T04:09:09.478Z,4.2
2022-11-15T04:12:09.594Z,4.4
2022-11-15T04:15:09.502Z,4.6
2022-11-15T04:18:09.606Z,4.6
2022-11-15T04:21:09.542Z,4.5
2022-11-15T04:24:09.547Z,4.6
2022-11-15T04:27:09.557Z,4.7
2022-11-15T04:30:09.631Z,4.8
2022-11-15T04:33:09.547Z,5
2022-11-15T04:36:09.545Z,5.1
2022-11-15T04:39:09.530Z,5.1
2022-11-15T04:42:09.550Z,5.1
2022-11-15T04:45:09.575Z,5.2
2022-11-15T04:48:09.540Z,5.2
2022-11-15T04:51:09.495Z,5.3
2022-11-15T04:54:09.503Z,5.4
2022-11-15T04:57:09.507Z,5.4
2022-11-15T05:00:09.682Z,5.4
2022-11-15T05:03:09.476Z,5.4
2022-11-15T05:06:09.608Z,5.4
2022-11-15T05:09:09.502Z,5.4
2022-11-15T05:12:09.577Z,5.2
2022-11-15T05:15:09.550Z,5.1
2022-11-15T05:18:09.526Z,5.1
2022-11-15T05:21:09.557Z,4.9
2022-11-15T05:24:09.515Z,4.8
2022-11-15T05:27:09.477Z,4.7
2022-11-15T05:30:09.649Z,4.5
2022-11-15T05:33:09.623Z,4.4
2022-11-15T05:36:09.513Z,4.4
2022-11-15T05:39:11.412Z,4.3
2022-11-15T05:42:09.543Z,4.2
2022-11-15T05:45:09.512Z,4.1
2022-11-15T05:48:09.595Z,4
2022-11-15T05:51:09.510Z,4.1
2022-11-15T05:54:09.487Z,4.1
2022-11-15T05:57:09.529Z,4.1
2022-11-15T06:00:09.706Z,4.1
2022-11-15T06:03:09.492Z,4.1
2022-11-15T06:06:16.326Z,4.2
2022-11-15T06:09:09.631Z,4.1
2022-11-15T06:12:09.537Z,4.2
2022-11-15T06:15:09.565Z,4.2
2022-11-15T06:18:09.529Z,4.2
2022-11-15T06:21:09.531Z,4.2
2022-11-15T06:24:09.564Z,4.2
2022-11-15T06:27:09.535Z,4.2
2022-11-15T06:30:09.820Z,4.1
2022-11-15T06:33:09.550Z,3.8
2022-11-15T06:36:13.208Z,3.6
2022-11-15T06:42:09.662Z,3.3
2022-11-15T06:45:09.665Z,3.4
2022-11-15T06:48:10.088Z,3.4
2022-11-15T06:51:09.625Z,3.5
2022-11-15T06:54:09.723Z,3.5
2022-11-15T06:57:09.548Z,3.4
2022-11-15T07:00:09.770Z,3.6
2022-11-15T07:03:09.623Z,3.7
2022-11-15T07:06:16.685Z,4
2022-11-15T07:09:09.626Z,4.2
2022-11-15T07:12:16.892Z,4.4
2022-11-15T07:15:09.592Z,4.4
2022-11-15T07:18:09.616Z,4.6
2022-11-15T07:21:09.516Z,4.7
2022-11-15T07:24:09.582Z,4.7
2022-11-15T07:27:10.322Z,4.9
2022-11-15T07:30:09.689Z,5
2022-11-15T07:33:09.578Z,5.1
2022-11-15T07:36:09.651Z,5.1
2022-11-15T07:39:09.528Z,5.2
2022-11-15T07:42:09.578Z,5.2
2022-11-15T07:45:09.675Z,5.3
2022-11-15T07:48:09.607Z,5.4
2022-11-15T07:51:16.337Z,5.4
2022-11-15T07:54:09.635Z,5.6
2022-11-15T07:57:16.708Z,5.7
2022-11-15T08:00:09.677Z,5.8
2022-11-15T08:03:09.728Z,5.9
2022-11-15T08:06:09.627Z,6
2022-11-15T08:09:09.578Z,6.1
2022-11-15T08:12:09.663Z,6.3
2022-11-15T08:15:09.637Z,6.4
2022-11-15T08:18:09.579Z,6.4
2022-11-15T08:21:11.987Z,6.6
2022-11-15T08:24:09.606Z,6.7
2022-11-15T08:27:09.865Z,6.8
2022-11-15T08:30:09.813Z,7
2022-11-15T08:33:09.553Z,7.1
2022-11-15T08:36:09.562Z,7.1
2022-11-15T08:39:09.668Z,7.2
2022-11-15T08:45:09.606Z,7.4
2022-11-15T08:48:09.769Z,7.5
2022-11-15T08:51:09.594Z,7.6
2022-11-15T08:54:09.640Z,7.7
2022-11-15T08:57:09.574Z,7.7
2022-11-15T09:00:09.727Z,7.8
2022-11-15T09:03:09.528Z,7.8
2022-11-15T09:06:10.142Z,7.9
2022-11-15T09:09:09.870Z,7.9
2022-11-15T09:12:11.951Z,7.9
2022-11-15T09:15:09.666Z,7.9
2022-11-15T09:21:09.661Z,7.9
2022-11-15T09:24:09.675Z,7.9
2022-11-15T09:27:09.693Z,8
2022-11-15T09:30:09.975Z,8.1
2022-11-15T09:33:09.613Z,8.1
2022-11-15T09:36:09.675Z,8.2
2022-11-15T09:39:09.586Z,8.4
2022-11-15T09:42:09.655Z,8.9
2022-11-15T09:45:09.553Z,9.9
2022-11-15T09:48:09.689Z,11.1
2022-11-15T09:51:09.622Z,12.1
2022-11-15T09:57:16.878Z,13.8
2022-11-15T10:00:55.257Z,14.3
2022-11-15T10:03:09.623Z,14.7
2022-11-15T10:06:09.614Z,15.3
2022-11-15T10:09:09.610Z,15.4
2022-11-15T10:12:09.582Z,15.4
2022-11-15T10:15:09.599Z,15.4
2022-11-15T10:18:09.653Z,15.5
2022-11-15T10:21:09.608Z,15.1
2022-11-15T10:24:09.730Z,14.4
2022-11-15T10:27:09.609Z,14
2022-11-15T10:30:09.691Z,13.9
2022-11-15T10:33:09.654Z,14.4
2022-11-15T10:36:09.593Z,14.6
2022-11-15T10:39:09.770Z,15.3
2022-11-15T10:42:24.225Z,16
2022-11-15T10:45:09.648Z,16.1
2022-11-15T10:48:09.578Z,15.8
2022-11-15T10:51:09.596Z,16
2022-11-15T10:54:22.176Z,16
2022-11-15T10:57:09.598Z,16.3
2022-11-15T11:00:09.659Z,16.4
2022-11-15T11:03:09.585Z,16.6
2022-11-15T11:06:09.609Z,16.9
2022-11-15T11:09:09.637Z,16.7
2022-11-15T11:12:09.600Z,16.3
2022-11-15T11:15:09.603Z,16.2
2022-11-15T11:18:09.612Z,16.1
2022-11-15T11:21:09.609Z,16.1
2022-11-15T11:24:09.616Z,15.7
2022-11-15T11:27:09.563Z,15.3
2022-11-15T11:30:09.739Z,14.9
2022-11-15T11:33:09.552Z,14.4
2022-11-15T11:36:09.659Z,14.2
2022-11-15T11:39:09.592Z,14.1
2022-11-15T11:42:09.603Z,13.9
2022-11-15T11:45:09.680Z,13.9
2022-11-15T11:48:09.629Z,13.9
2022-11-15T11:51:09.584Z,13.8
2022-11-15T11:54:09.680Z,13.6
2022-11-15T11:57:09.628Z,13.4
2022-11-15T12:00:09.734Z,13.4
2022-11-15T12:03:10.991Z,13.8
2022-11-15T12:06:09.620Z,14.1
2022-11-15T12:09:09.583Z,14.2
2022-11-15T12:12:09.568Z,14.4
2022-11-15T12:15:09.626Z,14.3
2022-11-15T12:18:09.644Z,14.2
2022-11-15T12:21:09.627Z,14.2
2022-11-15T12:24:09.772Z,14.1
2022-11-15T12:27:09.535Z,14
2022-11-15T12:30:09.687Z,13.9
2022-11-15T12:33:09.634Z,13.9
2022-11-15T12:36:09.605Z,13.8
2022-11-15T12:39:09.638Z,13.6
2022-11-15T12:42:09.613Z,13.6
2022-11-15T12:45:09.673Z,13.7
2022-11-15T12:48:09.599Z,13.7
2022-11-15T12:51:09.722Z,13.6
2022-11-15T12:54:09.602Z,13.6
2022-11-15T12:57:09.642Z,13.5
2022-11-15T13:00:09.756Z,13.5
2022-11-15T13:03:09.671Z,13.4
2022-11-15T13:06:09.568Z,13.3
2022-11-15T13:09:09.604Z,13.2
2022-11-15T13:12:09.635Z,13.1
2022-11-15T13:15:09.660Z,13.1
2022-11-15T13:18:09.578Z,13.1
2022-11-15T13:21:12.004Z,13.1
2022-11-15T13:24:10.354Z,13
2022-11-15T13:27:09.643Z,12.9
2022-11-15T13:30:09.756Z,12.9
2022-11-15T13:33:09.684Z,12.9
2022-11-15T13:36:09.570Z,12.8
2022-11-15T13:39:09.898Z,12.8
2022-11-15T13:42:09.765Z,12.8
2022-11-15T13:45:09.619Z,12.8
2022-11-15T13:48:09.716Z,12.8
2022-11-15T13:51:09.706Z,12.6
2022-11-15T13:54:09.741Z,12.6
2022-11-15T13:57:09.661Z,12.6
2022-11-15T14:00:09.854Z,12.5
2022-11-15T14:03:09.577Z,12.4
2022-11-15T14:06:09.648Z,12.3
2022-11-15T14:09:10.023Z,12.2
2022-11-15T14:12:09.615Z,12.2
2022-11-15T14:15:09.630Z,12.1
2022-11-15T14:18:09.562Z,12.1
2022-11-15T14:21:09.563Z,12
2022-11-15T14:24:09.910Z,12
2022-11-15T14:27:09.591Z,11.9
2022-11-15T14:30:09.674Z,11.8
2022-11-15T14:33:09.562Z,11.8
2022-11-15T14:36:10.502Z,11.7
2022-11-15T14:39:09.596Z,11.7
2022-11-15T14:42:09.526Z,11.7
2022-11-15T14:45:09.633Z,11.6
2022-11-15T14:48:09.608Z,11.6
2022-11-15T14:51:09.579Z,11.6
2022-11-15T14:54:09.651Z,11.6
2022-11-15T14:57:09.631Z,11.5
2022-11-15T15:00:09.756Z,11.4
2022-11-15T15:03:09.667Z,11.3
2022-11-15T15:06:12.352Z,11.3
2022-11-15T15:09:09.578Z,11.2
2022-11-15T15:12:15.421Z,11.1
2022-11-15T15:15:09.621Z,11
2022-11-15T15:18:09.613Z,10.9
2022-11-15T15:21:09.711Z,10.9
2022-11-15T15:24:09.647Z,10.9
2022-11-15T15:27:09.579Z,10.8
2022-11-15T15:30:09.701Z,10.8
2022-11-15T15:33:09.539Z,10.8
2022-11-15T15:36:09.564Z,10.8
2022-11-15T15:39:09.526Z,10.8
2022-11-15T15:42:09.518Z,10.7
2022-11-15T15:45:09.657Z,10.7
2022-11-15T15:48:10.109Z,10.6
2022-11-15T15:51:24.264Z,10.6
2022-11-15T15:54:09.510Z,10.6
2022-11-15T15:57:09.492Z,10.5
2022-11-15T16:00:09.822Z,10.4
2022-11-15T16:03:09.532Z,10.4
2022-11-15T16:06:09.593Z,10.4
2022-11-15T16:09:26.954Z,10.3
2022-11-15T16:12:09.810Z,10.3
2022-11-15T16:15:09.513Z,10.2
2022-11-15T16:18:09.628Z,10.1
2022-11-15T16:21:09.548Z,10.1
2022-11-15T16:24:09.838Z,10.1
2022-11-15T16:27:09.563Z,10.1
2022-11-15T16:30:09.785Z,10.1
2022-11-15T16:33:09.670Z,10.1
2022-11-15T16:36:09.601Z,10.1
2022-11-15T16:39:09.580Z,10.1
2022-11-15T16:42:09.768Z,10.1
2022-11-15T16:45:09.566Z,10.1
2022-11-15T16:48:09.511Z,10.1
2022-11-15T16:51:09.588Z,10.1
2022-11-15T16:54:09.495Z,10.1
2022-11-15T16:57:09.630Z,9.9
2022-11-15T17:00:09.667Z,10
2022-11-15T17:03:09.520Z,10.1
2022-11-15T17:06:09.510Z,10
2022-11-15T17:09:09.575Z,10
2022-11-15T17:12:09.585Z,10
2022-11-15T17:15:09.515Z,10.1
2022-11-15T17:18:09.583Z,10.1
2022-11-15T17:21:09.910Z,10.1
2022-11-15T17:24:09.554Z,10.1
2022-11-15T17:27:09.519Z,10.1
2022-11-15T17:30:09.601Z,10.1
2022-11-15T17:33:09.523Z,10.1
2022-11-15T17:36:09.531Z,10.1
2022-11-15T17:39:09.738Z,10.1
2022-11-15T17:42:09.528Z,10.1
2022-11-15T17:45:18.653Z,10.1
2022-11-15T17:48:09.585Z,10.1
2022-11-15T17:51:09.511Z,10.1
2022-11-15T17:54:09.620Z,10.1
2022-11-15T17:57:09.573Z,10.1
2022-11-15T18:00:09.856Z,10.1
2022-11-15T18:03:09.597Z,10.1
2022-11-15T18:06:09.585Z,10.1
2022-11-15T18:09:09.672Z,10.1
2022-11-15T18:12:09.526Z,10.1
2022-11-15T18:15:09.670Z,10.1
2022-11-15T18:18:10.082Z,10.1
2022-11-15T18:21:09.574Z,10
2022-11-15T18:24:09.537Z,10
2022-11-15T18:27:09.584Z,10
2022-11-15T18:30:09.673Z,10.1
2022-11-15T18:33:09.590Z,10
2022-11-15T18:36:09.539Z,9.9
2022-11-15T18:39:09.607Z,9.9
2022-11-15T18:42:09.566Z,9.9
2022-11-15T18:45:09.629Z,9.9
2022-11-15T18:48:09.561Z,9.9
2022-11-15T18:51:14.458Z,9.9
2022-11-15T18:54:09.560Z,9.8
2022-11-15T18:57:09.548Z,9.8
2022-11-15T19:00:09.776Z,9.8
2022-11-15T19:03:09.547Z,9.8
2022-11-15T19:06:09.639Z,9.8
2022-11-15T19:09:09.482Z,9.8
2022-11-15T19:12:09.631Z,9.9
2022-11-15T19:15:15.467Z,9.8
2022-11-15T19:18:09.529Z,9.8
2022-11-15T19:21:13.365Z,9.8
2022-11-15T19:24:09.549Z,9.8
2022-11-15T19:27:09.487Z,9.8
2022-11-15T19:30:09.599Z,9.8
2022-11-15T19:33:09.465Z,9.8
2022-11-15T19:36:09.580Z,9.8
2022-11-15T19:39:09.704Z,9.8
2022-11-15T19:42:09.540Z,9.8
2022-11-15T19:45:09.528Z,9.8
2022-11-15T19:48:09.604Z,9.8
2022-11-15T19:51:09.548Z,9.7
2022-11-15T19:54:09.578Z,9.7
2022-11-15T19:57:09.540Z,9.6
2022-11-15T20:00:16.350Z,9.6
2022-11-15T20:03:09.571Z,9.6
2022-11-15T20:06:09.563Z,9.6
2022-11-15T20:09:09.590Z,9.5
2022-11-15T20:12:09.567Z,9.5
2022-11-15T20:15:09.575Z,9.4
2022-11-15T20:18:09.581Z,9.4
2022-11-15T20:21:09.521Z,9.4
2022-11-15T20:24:09.619Z,9.3
2022-11-15T20:27:09.540Z,9.3
2022-11-15T20:30:09.633Z,9.3
2022-11-15T20:33:09.512Z,9.2
2022-11-15T20:36:09.519Z,9.2
2022-11-15T20:39:09.559Z,9.2
2022-11-15T20:42:09.575Z,9.2
2022-11-15T20:45:09.540Z,9.2
2022-11-15T20:48:09.568Z,9.2
2022-11-15T20:51:09.571Z,9.2
2022-11-15T20:54:09.754Z,9.2
2022-11-15T20:57:09.537Z,9.1
2022-11-15T21:00:14.880Z,9.2
2022-11-15T21:03:09.590Z,9.5
2022-11-15T21:06:09.554Z,9.6
2022-11-15T21:09:09.574Z,9.6
2022-11-15T21:12:09.737Z,9.5
2022-11-15T21:15:09.656Z,9.4
2022-11-15T21:18:09.597Z,9.3
2022-11-15T21:21:09.861Z,9.3
2022-11-15T21:24:09.567Z,9.3
2022-11-15T21:27:09.570Z,9.3
2022-11-15T21:30:09.598Z,9.3
2022-11-15T21:33:09.630Z,9.2
2022-11-15T21:36:09.639Z,9.2
2022-11-15T21:39:09.958Z,9.1
2022-11-15T21:42:09.655Z,9.1
2022-11-15T21:45:09.753Z,9.1
2022-11-15T21:48:09.607Z,9.1
2022-11-15T21:51:09.611Z,9
2022-11-15T21:54:09.874Z,8.9
2022-11-15T21:57:09.653Z,8.9
2022-11-15T22:00:09.590Z,8.8
2022-11-15T22:03:09.718Z,8.7
2022-11-15T22:06:13.038Z,8.7
2022-11-15T22:09:09.580Z,8.7
2022-11-15T22:12:09.542Z,8.6
2022-11-15T22:15:09.526Z,8.5
2022-11-15T22:18:09.562Z,8.4
2022-11-15T22:21:09.664Z,8.4
2022-11-15T22:24:09.603Z,8.3
2022-11-15T22:27:09.523Z,8.3
2022-11-15T22:30:09.603Z,8.4
2022-11-15T22:33:09.569Z,8.5
2022-11-15T22:36:09.553Z,8.6
2022-11-15T22:39:09.559Z,8.6
2022-11-15T22:42:09.493Z,8.6
2022-11-15T22:45:09.546Z,8.6
2022-11-15T22:48:09.612Z,8.5
2022-11-15T22:51:09.552Z,8.6
2022-11-15T22:54:09.648Z,8.6
2022-11-15T22:57:09.548Z,8.6
2022-11-15T23:00:09.925Z,8.5
2022-11-15T23:03:09.733Z,8.5
2022-11-15T23:06:09.553Z,8.4
2022-11-15T23:09:09.578Z,8.4
2022-11-15T23:12:09.559Z,8.3
2022-11-15T23:15:09.565Z,8.4
2022-11-15T23:18:09.694Z,8.3
2022-11-15T23:21:09.657Z,8.4
2022-11-15T23:24:09.658Z,8.4
2022-11-15T23:27:09.494Z,8.4
2022-11-15T23:30:09.622Z,8.4
2022-11-15T23:33:09.556Z,8.4
2022-11-15T23:36:09.536Z,8.4
2022-11-15T23:39:09.507Z,8.4
2022-11-15T23:42:18.075Z,8.4
2022-11-15T23:45:09.538Z,8.4
2022-11-15T23:48:10.689Z,8.4
2022-11-15T23:51:09.541Z,8.4
2022-11-15T23:54:09.582Z,8.4
2022-11-15T23:57:09.662Z,8.4
